createdAt,value
2019-04-22T00:02:08.937Z,7.20
2019-04-22T00:04:49.881Z,7.20
2019-04-22T00:07:30.743Z,7.20
2019-04-22T00:10:09.661Z,7.00
2019-04-22T00:12:37.238Z,7.00
2019-04-22T00:15:01.925Z,7.10
2019-04-22T00:17:40.187Z,7.10
2019-04-22T00:22:32.687Z,7.10
2019-04-22T00:25:10.395Z,7.00
2019-04-22T00:27:42.829Z,6.90
2019-04-22T00:30:15.505Z,6.80
2019-04-22T00:32:41.754Z,6.80
2019-04-22T00:35:13.262Z,6.90
2019-04-22T00:37:49.283Z,6.90
2019-04-22T00:40:25.269Z,6.90
2019-04-22T00:42:47.612Z,6.80
2019-04-22T00:45:19.338Z,6.70
2019-04-22T00:47:43.774Z,6.60
2019-04-22T00:53:15.256Z,6.60
2019-04-22T00:57:54.237Z,6.50
2019-04-22T01:00:27.785Z,6.50
2019-04-22T01:02:59.254Z,6.60
2019-04-22T01:05:27.761Z,6.60
2019-04-22T01:08:04.385Z,6.60
2019-04-22T01:10:25.862Z,6.50
2019-04-22T01:12:58.399Z,6.50
2019-04-22T01:15:30.401Z,6.50
2019-04-22T01:17:57.831Z,6.40
2019-04-22T01:20:54.306Z,6.30
2019-04-22T01:23:00.673Z,6.40
2019-04-22T01:25:26.392Z,6.30
2019-04-22T01:27:53.074Z,6.30
2019-04-22T01:30:20.661Z,6.30
2019-04-22T01:32:43.973Z,6.20
2019-04-22T01:35:26.434Z,6.20
2019-04-22T01:37:54.419Z,6.20
2019-04-22T01:40:40.499Z,6.20
2019-04-22T01:43:08.673Z,6.20
2019-04-22T01:45:41.421Z,6.20
2019-04-22T01:48:11.162Z,6.30
2019-04-22T01:50:41.075Z,6.30
2019-04-22T01:53:12.687Z,6.30
2019-04-22T01:55:45.510Z,6.20
2019-04-22T01:58:08.217Z,6.00
2019-04-22T02:06:03.634Z,5.80
2019-04-22T02:08:37.916Z,5.80
2019-04-22T02:11:00.760Z,5.80
2019-04-22T02:13:30.709Z,5.70
2019-04-22T02:16:23.118Z,5.70
2019-04-22T02:18:39.319Z,5.70
2019-04-22T02:21:01.710Z,5.60
2019-04-22T02:28:45.800Z,5.50
2019-04-22T02:34:01.289Z,5.60
2019-04-22T02:36:30.041Z,5.60
2019-04-22T02:41:22.725Z,5.60
2019-04-22T03:04:09.395Z,5.30
2019-04-22T03:06:34.948Z,5.30
2019-04-22T03:14:04.735Z,5.20
2019-04-22T03:16:37.521Z,5.30
2019-04-22T03:19:16.964Z,5.40
2019-04-22T03:21:44.178Z,5.30
2019-04-22T03:26:45.347Z,5.20
2019-04-22T03:29:32.988Z,5.00
2019-04-22T03:35:09.782Z,4.90
2019-04-22T03:44:32.218Z,4.90
2019-04-22T03:49:38.935Z,5.00
2019-04-22T03:59:31.800Z,4.90
2019-04-22T04:02:10.629Z,4.80
2019-04-22T04:04:35.981Z,4.80
2019-04-22T04:07:11.562Z,4.90
2019-04-22T04:12:03.580Z,4.80
2019-04-22T04:14:38.040Z,4.90
2019-04-22T04:17:20.690Z,4.90
2019-04-22T04:25:08.365Z,5.10
2019-04-22T04:32:30.731Z,5.10
2019-04-22T04:37:28.214Z,5.10
2019-04-22T04:42:30.007Z,5.20
2019-04-22T04:44:59.215Z,5.30
2019-04-22T04:47:29.506Z,5.40
2019-04-22T04:54:48.423Z,5.60
2019-04-22T04:57:23.472Z,5.60
2019-04-22T05:02:20.454Z,5.70
2019-04-22T05:09:54.974Z,6.20
2019-04-22T05:12:39.575Z,6.30
2019-04-22T05:14:55.017Z,6.40
2019-04-22T05:17:25.637Z,6.70
2019-04-22T05:19:59.048Z,6.90
2019-04-22T05:22:21.380Z,7.20
2019-04-22T05:24:51.919Z,7.30
2019-04-22T05:27:29.133Z,7.50
2019-04-22T05:30:08.817Z,7.80
2019-04-22T05:32:24.527Z,7.90
2019-04-22T05:34:52.902Z,7.90
2019-04-22T05:40:06.606Z,8.00
2019-04-22T05:42:34.285Z,8.00
2019-04-22T05:44:55.447Z,8.10
2019-04-22T05:47:30.753Z,8.20
2019-04-22T05:49:56.308Z,8.50
2019-04-22T05:52:26.617Z,8.70
2019-04-22T05:55:06.606Z,9.00
2019-04-22T05:57:31.048Z,9.20
2019-04-22T06:00:01.239Z,9.30
2019-04-22T06:02:39.769Z,9.40
2019-04-22T06:05:06.649Z,9.50
2019-04-22T06:07:32.448Z,9.70
2019-04-22T06:10:06.792Z,10.00
2019-04-22T06:12:26.514Z,10.60
2019-04-22T06:15:05.062Z,11.10
2019-04-22T06:17:39.019Z,12.50
2019-04-22T06:20:10.489Z,15.30
2019-04-22T06:22:48.664Z,18.10
2019-04-22T06:25:39.112Z,20.20
2019-04-22T06:27:42.973Z,21.30
2019-04-22T06:30:15.647Z,22.10
2019-04-22T06:32:42.175Z,23.20
2019-04-22T06:35:24.985Z,23.60
2019-04-22T06:38:06.789Z,24.40
2019-04-22T06:40:20.794Z,24.90
2019-04-22T06:42:52.585Z,25.90
2019-04-22T06:45:18.912Z,26.10
2019-04-22T06:47:59.146Z,26.70
2019-04-22T06:50:16.625Z,27.20
2019-04-22T06:52:54.553Z,27.30
2019-04-22T06:55:23.275Z,27.40
2019-04-22T06:57:45.270Z,28.40
2019-04-22T07:00:22.544Z,28.60
2019-04-22T07:03:13.271Z,28.30
2019-04-22T07:05:21.990Z,28.20
2019-04-22T07:07:53.425Z,28.40
2019-04-22T07:12:53.942Z,29.30
2019-04-22T07:15:35.755Z,29.90
2019-04-22T07:17:58.294Z,30.30
2019-04-22T07:20:24.160Z,29.90
2019-04-22T07:22:59.953Z,30.00
2019-04-22T07:25:24.995Z,30.00
2019-04-22T07:28:13.825Z,29.70
2019-04-22T07:30:28.090Z,30.20
2019-04-22T07:33:11.554Z,30.40
2019-04-22T07:35:40.175Z,30.60
2019-04-22T07:37:54.265Z,30.70
2019-04-22T07:40:37.289Z,31.00
2019-04-22T07:43:04.329Z,31.20
2019-04-22T07:45:39.160Z,30.90
2019-04-22T07:48:11.259Z,31.20
2019-04-22T07:53:05.446Z,31.40
2019-04-22T07:55:32.615Z,32.30
2019-04-22T07:58:05.434Z,32.90
2019-04-22T08:04:00.051Z,33.00
2019-04-22T08:06:17.252Z,33.60
2019-04-22T08:08:47.052Z,34.00
2019-04-22T08:11:31.141Z,34.60
2019-04-22T08:13:49.822Z,34.20
2019-04-22T08:16:16.357Z,33.70
2019-04-22T08:18:45.835Z,33.60
2019-04-22T08:21:16.724Z,34.00
2019-04-22T08:23:50.991Z,34.30
2019-04-22T08:26:19.533Z,34.00
2019-04-22T08:28:51.792Z,34.20
2019-04-22T08:31:20.522Z,34.60
2019-04-22T08:34:00.332Z,34.20
2019-04-22T08:36:30.527Z,33.80
2019-04-22T08:41:32.701Z,32.70
2019-04-22T08:44:02.331Z,31.90
2019-04-22T08:54:11.875Z,30.30
2019-04-22T08:56:32.450Z,30.30
2019-04-22T08:59:12.257Z,30.70
2019-04-22T09:01:29.646Z,31.00
2019-04-22T09:04:02.555Z,31.70
2019-04-22T09:16:37.713Z,33.10
2019-04-22T09:19:10.799Z,32.70
2019-04-22T09:26:36.181Z,31.80
2019-04-22T09:29:14.314Z,31.60
2019-04-22T09:31:39.153Z,31.70
2019-04-22T09:34:06.524Z,32.30
2019-04-22T09:36:44.001Z,33.20
2019-04-22T09:39:09.261Z,32.80
2019-04-22T09:41:43.042Z,32.50
2019-04-22T09:44:08.059Z,32.60
2019-04-22T09:46:45.532Z,32.20
2019-04-22T09:51:46.168Z,30.30
2019-04-22T09:54:26.570Z,29.20
2019-04-22T09:56:44.486Z,29.10
2019-04-22T09:59:18.894Z,29.40
2019-04-22T10:01:40.958Z,30.20
2019-04-22T10:04:14.316Z,30.50
2019-04-22T10:06:41.062Z,30.50
2019-04-22T10:09:38.096Z,31.40
2019-04-22T10:11:47.074Z,32.40
2019-04-22T10:14:19.035Z,33.20
2019-04-22T10:17:03.279Z,34.00
2019-04-22T10:19:18.409Z,33.50
2019-04-22T10:21:49.984Z,32.50
2019-04-22T10:24:30.125Z,30.70
2019-04-22T10:27:02.145Z,29.30
2019-04-22T10:29:16.991Z,27.80
2019-04-22T10:31:51.075Z,26.90
2019-04-22T10:34:09.293Z,26.40
2019-04-22T10:36:27.787Z,26.20
2019-04-22T10:38:58.040Z,26.10
2019-04-22T10:41:28.460Z,25.70
2019-04-22T10:43:57.423Z,25.60
2019-04-22T10:46:26.394Z,25.90
2019-04-22T10:48:55.376Z,26.00
2019-04-22T10:51:24.484Z,25.60
2019-04-22T10:53:53.455Z,25.50
2019-04-22T10:56:23.050Z,25.40
2019-04-22T10:58:52.941Z,25.30
2019-04-22T11:01:23.282Z,25.20
2019-04-22T11:03:53.117Z,25.10
2019-04-22T11:06:23.171Z,25.10
2019-04-22T11:08:57.492Z,25.00
2019-04-22T11:11:34.691Z,24.70
2019-04-22T11:13:53.760Z,24.70
2019-04-22T11:16:23.385Z,24.60
2019-04-22T11:18:53.571Z,24.40
2019-04-22T11:21:23.293Z,24.40
2019-04-22T11:23:52.539Z,24.30
2019-04-22T11:26:21.969Z,24.40
2019-04-22T11:28:51.742Z,24.60
2019-04-22T11:31:20.855Z,24.60
2019-04-22T11:33:50.289Z,24.40
2019-04-22T11:36:19.940Z,24.20
2019-04-22T11:38:52.993Z,24.20
2019-04-22T11:41:19.554Z,24.30
2019-04-22T11:43:49.427Z,24.00
2019-04-22T11:46:18.536Z,23.90
2019-04-22T11:48:47.717Z,24.10
2019-04-22T11:51:18.018Z,24.10
2019-04-22T11:53:47.139Z,24.20
2019-04-22T11:56:16.830Z,24.20
2019-04-22T11:58:46.967Z,24.20
2019-04-22T12:01:16.921Z,24.20
2019-04-22T12:03:46.342Z,24.10
2019-04-22T12:06:15.788Z,23.90
2019-04-22T12:08:45.931Z,23.70
2019-04-22T12:11:16.675Z,23.70
2019-04-22T12:13:46.297Z,23.50
2019-04-22T12:16:17.010Z,23.50
2019-04-22T12:18:47.235Z,23.60
2019-04-22T12:21:17.121Z,23.50
2019-04-22T12:23:47.216Z,23.40
2019-04-22T12:26:19.001Z,23.50
2019-04-22T12:28:47.130Z,23.70
2019-04-22T12:31:17.487Z,23.90
2019-04-22T12:33:47.660Z,23.90
2019-04-22T12:36:16.558Z,23.80
2019-04-22T12:38:45.423Z,24.00
2019-04-22T12:41:15.922Z,24.20
2019-04-22T12:43:45.073Z,24.40
2019-04-22T12:46:14.477Z,24.70
2019-04-22T12:48:43.765Z,24.80
2019-04-22T12:51:15.210Z,24.70
2019-04-22T12:53:44.588Z,24.60
2019-04-22T12:56:15.391Z,24.40
2019-04-22T12:58:45.597Z,24.30
2019-04-22T13:01:15.120Z,24.20
2019-04-22T13:07:13.685Z,23.90
2019-04-22T13:09:43.265Z,23.80
2019-04-22T13:12:13.142Z,23.70
2019-04-22T13:14:43.346Z,23.80
2019-04-22T13:17:14.015Z,23.90
2019-04-22T13:19:44.337Z,23.90
2019-04-22T13:22:14.640Z,23.90
2019-04-22T13:24:43.892Z,24.00
2019-04-22T13:27:13.014Z,23.90
2019-04-22T13:29:43.384Z,23.90
2019-04-22T13:32:13.175Z,24.10
2019-04-22T13:34:46.664Z,24.20
2019-04-22T13:37:12.912Z,24.20
2019-04-22T13:39:42.884Z,24.30
2019-04-22T13:42:17.604Z,24.40
2019-04-22T13:44:44.050Z,24.50
2019-04-22T13:47:30.802Z,24.40
2019-04-22T13:50:17.676Z,24.20
2019-04-22T13:52:46.346Z,24.20
2019-04-22T13:55:15.948Z,24.30
2019-04-22T13:57:33.173Z,24.20
2019-04-22T13:59:50.708Z,24.10
2019-04-22T14:02:33.126Z,24.20
2019-04-22T14:05:02.012Z,24.40
2019-04-22T14:07:30.858Z,24.70
2019-04-22T14:10:00.201Z,24.90
2019-04-22T14:12:30.487Z,24.90
2019-04-22T14:15:00.238Z,24.80
2019-04-22T14:17:29.438Z,24.80
2019-04-22T14:19:58.474Z,24.80
2019-04-22T14:22:28.369Z,24.90
2019-04-22T14:24:58.688Z,24.90
2019-04-22T14:27:37.886Z,24.80
2019-04-22T14:29:59.789Z,24.60
2019-04-22T14:32:31.697Z,24.50
2019-04-22T14:35:00.675Z,24.50
2019-04-22T14:37:29.933Z,24.50
2019-04-22T14:40:00.127Z,24.70
2019-04-22T14:42:51.788Z,24.70
2019-04-22T14:48:01.140Z,24.70
2019-04-22T14:50:22.378Z,24.60
2019-04-22T14:52:52.343Z,24.50
2019-04-22T14:55:11.347Z,24.50
2019-04-22T14:57:35.770Z,24.50
2019-04-22T15:00:08.121Z,24.50
2019-04-22T15:02:39.528Z,24.50
2019-04-22T15:05:10.116Z,24.50
2019-04-22T15:07:39.463Z,24.40
2019-04-22T15:10:10.143Z,24.40
2019-04-22T15:12:45.731Z,24.30
2019-04-22T15:15:29.263Z,24.40
2019-04-22T15:18:06.077Z,24.50
2019-04-22T15:20:54.265Z,24.50
2019-04-22T15:23:24.659Z,24.40
2019-04-22T15:25:54.745Z,24.20
2019-04-22T15:28:23.896Z,24.10
2019-04-22T15:30:53.259Z,24.10
2019-04-22T15:33:23.403Z,23.90
2019-04-22T15:35:53.567Z,23.80
2019-04-22T15:38:24.222Z,23.70
2019-04-22T15:40:54.511Z,23.70
2019-04-22T15:43:27.957Z,23.70
2019-04-22T15:45:54.960Z,23.70
2019-04-22T15:48:25.058Z,23.80
2019-04-22T15:50:54.966Z,23.70
2019-04-22T15:53:25.288Z,23.50
2019-04-22T15:55:54.716Z,23.40
2019-04-22T15:58:23.943Z,23.30
2019-04-22T16:01:03.960Z,23.20
2019-04-22T16:03:24.740Z,23.00
2019-04-22T16:05:54.401Z,23.00
2019-04-22T16:08:24.747Z,22.90
2019-04-22T16:10:53.825Z,22.80
2019-04-22T16:13:25.536Z,22.70
2019-04-22T16:15:54.727Z,22.60
2019-04-22T16:18:24.336Z,22.50
2019-04-22T16:20:54.414Z,22.40
2019-04-22T16:23:29.606Z,22.30
2019-04-22T16:26:16.166Z,22.30
2019-04-22T16:28:45.203Z,22.30
2019-04-22T16:31:15.419Z,22.20
2019-04-22T16:33:47.674Z,22.20
2019-04-22T16:36:16.501Z,22.10
2019-04-22T16:38:46.785Z,22.00
2019-04-22T16:41:17.059Z,22.00
2019-04-22T16:43:46.714Z,21.90
2019-04-22T16:46:15.963Z,21.80
2019-04-22T16:48:45.461Z,21.70
2019-04-22T16:51:15.967Z,21.60
2019-04-22T16:53:45.225Z,21.60
2019-04-22T16:56:15.185Z,21.60
2019-04-22T16:58:44.208Z,21.60
2019-04-22T17:01:16.515Z,21.50
2019-04-22T17:04:02.733Z,21.50
2019-04-22T17:06:33.286Z,21.40
2019-04-22T17:09:02.660Z,21.40
2019-04-22T17:11:31.840Z,21.40
2019-04-22T17:14:01.349Z,21.40
2019-04-22T17:16:30.673Z,21.40
2019-04-22T17:19:00.544Z,21.40
2019-04-22T17:21:29.963Z,21.40
2019-04-22T17:23:59.400Z,21.40
2019-04-22T17:26:28.642Z,21.30
2019-04-22T17:28:59.529Z,21.30
2019-04-22T17:31:28.974Z,21.30
2019-04-22T17:33:58.995Z,21.20
2019-04-22T17:36:28.049Z,21.20
2019-04-22T17:39:13.142Z,21.20
2019-04-22T17:41:45.089Z,21.20
2019-04-22T17:44:27.394Z,20.90
2019-04-22T17:46:48.341Z,20.70
2019-04-22T17:49:31.590Z,20.60
2019-04-22T17:52:16.891Z,20.50
2019-04-22T17:54:49.381Z,20.30
2019-04-22T17:57:19.296Z,20.30
2019-04-22T17:59:46.711Z,20.30
2019-04-22T18:02:21.386Z,20.30
2019-04-22T18:04:40.169Z,20.00
2019-04-22T18:10:32.458Z,19.50
2019-04-22T18:13:08.796Z,19.60
2019-04-22T18:15:30.730Z,19.30
2019-04-22T18:18:08.731Z,19.00
2019-04-22T18:20:22.617Z,18.80
2019-04-22T18:22:52.498Z,18.70
2019-04-22T18:25:26.843Z,18.70
2019-04-22T18:28:10.449Z,19.00
2019-04-22T18:30:24.294Z,19.30
2019-04-22T18:33:02.760Z,19.60
2019-04-22T18:35:33.847Z,19.30
2019-04-22T18:38:12.363Z,19.10
2019-04-22T18:40:37.074Z,18.70
2019-04-22T18:43:10.437Z,18.50
2019-04-22T18:48:02.887Z,17.90
2019-04-22T18:50:45.205Z,17.70
2019-04-22T18:53:40.328Z,17.50
2019-04-22T18:56:13.875Z,17.30
2019-04-22T18:58:36.069Z,17.40
2019-04-22T19:00:51.288Z,17.40
2019-04-22T19:03:27.406Z,17.40
2019-04-22T19:06:27.930Z,17.50
2019-04-22T19:08:45.576Z,17.50
2019-04-22T19:11:27.013Z,17.40
2019-04-22T19:16:25.541Z,17.30
2019-04-22T19:18:50.225Z,17.30
2019-04-22T19:21:16.189Z,17.40
2019-04-22T19:23:52.244Z,17.50
2019-04-22T19:26:28.822Z,17.40
2019-04-22T19:28:57.195Z,17.20
2019-04-22T19:31:34.925Z,17.00
2019-04-22T19:33:53.862Z,16.80
2019-04-22T19:36:20.423Z,16.70
2019-04-22T19:38:50.066Z,16.60
2019-04-22T19:41:24.058Z,16.50
2019-04-22T19:44:00.459Z,16.30
2019-04-22T19:46:20.966Z,16.20
2019-04-22T19:48:56.464Z,16.10
2019-04-22T19:51:32.013Z,16.20
2019-04-22T19:53:56.100Z,16.10
2019-04-22T19:56:21.107Z,16.00
2019-04-22T19:58:52.634Z,15.80
2019-04-22T20:01:27.325Z,15.70
2019-04-22T20:04:13.600Z,15.60
2019-04-22T20:06:37.797Z,15.70
2019-04-22T20:09:13.994Z,15.60
2019-04-22T20:11:41.297Z,15.50
2019-04-22T20:14:13.753Z,15.40
2019-04-22T20:16:46.625Z,15.40
2019-04-22T20:19:19.533Z,15.30
2019-04-22T20:21:40.608Z,15.30
2019-04-22T20:24:02.186Z,15.40
2019-04-22T20:26:46.953Z,15.30
2019-04-22T20:29:24.294Z,15.40
2019-04-22T20:31:46.954Z,15.40
2019-04-22T20:34:22.318Z,15.40
2019-04-22T20:36:58.099Z,15.20
2019-04-22T20:39:15.687Z,15.10
2019-04-22T20:41:41.036Z,14.90
2019-04-22T20:44:28.151Z,14.90
2019-04-22T20:46:44.813Z,14.80
2019-04-22T20:49:19.961Z,14.70
2019-04-22T20:52:00.219Z,14.60
2019-04-22T20:54:17.822Z,14.60
2019-04-22T20:56:48.221Z,14.60
2019-04-22T20:59:19.381Z,14.70
2019-04-22T21:01:52.567Z,14.70
2019-04-22T21:04:09.098Z,14.70
2019-04-22T21:06:47.330Z,14.70
2019-04-22T21:09:22.126Z,14.80
2019-04-22T21:11:49.447Z,14.80
2019-04-22T21:14:21.608Z,14.80
2019-04-22T21:16:56.340Z,14.80
2019-04-22T21:19:33.108Z,14.80
2019-04-22T21:21:57.793Z,14.70
2019-04-22T21:24:23.752Z,14.70
2019-04-22T21:26:57.081Z,14.70
2019-04-22T21:29:20.306Z,14.60
2019-04-22T21:31:54.870Z,14.50
2019-04-22T21:34:23.421Z,14.50
2019-04-22T21:37:09.212Z,14.50
2019-04-22T21:39:26.336Z,14.40
2019-04-22T21:42:03.350Z,14.30
2019-04-22T21:44:30.713Z,14.20
2019-04-22T21:47:10.457Z,14.20
2019-04-22T21:49:35.887Z,14.20
2019-04-22T21:52:06.468Z,14.20
2019-04-22T21:54:45.424Z,14.20
2019-04-22T21:57:18.912Z,14.10
2019-04-22T21:59:47.151Z,14.10
2019-04-22T22:02:25.248Z,14.10
2019-04-22T22:04:48.893Z,14.10
2019-04-22T22:07:09.861Z,14.20
2019-04-22T22:09:53.954Z,14.10
2019-04-22T22:12:17.382Z,14.00
2019-04-22T22:15:03.133Z,14.00
2019-04-22T22:17:23.303Z,13.90
2019-04-22T22:19:54.486Z,14.00
2019-04-22T22:22:42.371Z,13.90
2019-04-22T22:24:58.340Z,14.00
2019-04-22T22:27:25.095Z,13.90
2019-04-22T22:30:06.618Z,14.00
2019-04-22T22:32:32.056Z,14.00
2019-04-22T22:35:00.442Z,14.00
2019-04-22T22:37:16.999Z,13.90
2019-04-22T22:39:48.114Z,13.90
2019-04-22T22:42:10.886Z,13.80
2019-04-22T22:44:44.877Z,13.80
2019-04-22T22:47:29.791Z,13.70
2019-04-22T22:50:07.691Z,13.70
2019-04-22T22:55:06.908Z,13.80
2019-04-22T22:57:56.660Z,13.80
2019-04-22T23:00:07.987Z,13.80
2019-04-22T23:02:36.269Z,13.80
2019-04-22T23:05:09.623Z,13.70
2019-04-22T23:07:44.132Z,13.60
2019-04-22T23:10:31.693Z,13.50
2019-04-22T23:13:01.510Z,13.40
2019-04-22T23:15:40.511Z,13.40
2019-04-22T23:17:54.056Z,13.40
2019-04-22T23:20:30.256Z,13.50
2019-04-22T23:23:14.317Z,13.50
2019-04-22T23:25:44.155Z,13.40
2019-04-22T23:28:16.068Z,13.40
2019-04-22T23:30:56.782Z,13.50
2019-04-22T23:33:54.642Z,13.50
2019-04-22T23:36:25.142Z,13.50
2019-04-22T23:39:14.118Z,13.60
2019-04-22T23:41:47.567Z,13.60
2019-04-22T23:44:15.986Z,13.60
2019-04-22T23:46:38.010Z,13.60
2019-04-22T23:49:08.854Z,13.70
2019-04-22T23:51:51.208Z,13.80
2019-04-22T23:54:13.196Z,13.80
2019-04-22T23:56:39.715Z,13.80
2019-04-22T23:59:23.300Z,13.80
